Time;durP1;ratioP1;P1;durP2;ratioP2;P2;SDS_P1;SDS_P2;PMS_P1;PMS_P2;Temp;Humidity;BMP_temperature;BMP_pressure;BME280_temperature;BME280_humidity;BME280_pressure;Samples;Min_cycle;Max_cycle;Signal;HPM_P1;HPM_P2
2022/01/23 00:02:20;;;;;;;78.32;42.40;;;;;;;;;;5033857;28;20451;-61
2022/01/23 00:04:46;;;;;;;78.40;45.13;;;;;;;;;;4989823;28;20114;-61
2022/01/23 00:07:14;;;;;;;82.73;44.37;;;;;;;;;;5015256;28;20112;-61
2022/01/23 00:09:41;;;;;;;87.40;47.37;;;;;;;;;;5008928;28;20034;-61
2022/01/23 00:12:12;;;;;;;83.00;48.83;;;;;;;;;;5005486;28;20042;-61
2022/01/23 00:17:24;;;;;;;;;;;;;;;;;;5007366;28;20041;-61
2022/01/23 00:19:59;;;;;;;89.33;50.07;;;;;;;;;;4989476;28;19919;-61
2022/01/23 00:30:59;;;;;;;91.68;52.30;;;;;;;;;;5008442;28;20104;-61
2022/01/23 00:33:25;;;;;;;92.77;51.27;;;;;;;;;;5008335;28;20042;-61
2022/01/23 00:35:53;;;;;;;88.87;52.53;;;;;;;;;;5040010;28;20099;-61
2022/01/23 00:38:19;;;;;;;89.53;52.10;;;;;;;;;;5008743;28;20045;-61
2022/01/23 00:40:47;;;;;;;82.53;49.47;;;;;;;;;;5008386;28;20030;-62
2022/01/23 00:43:17;;;;;;;86.60;49.07;;;;;;;;;;5009837;28;20044;-61
2022/01/23 00:45:50;;;;;;;86.30;49.77;;;;;;;;;;5008258;28;20120;-61
2022/01/23 00:48:18;;;;;;;85.03;49.67;;;;;;;;;;5007387;28;20112;-61
2022/01/23 00:50:45;;;;;;;84.53;48.90;;;;;;;;;;5007521;28;20041;-61
2022/01/23 00:53:12;;;;;;;85.83;51.27;;;;;;;;;;5009383;28;20183;-61
2022/01/23 00:55:39;;;;;;;93.87;50.60;;;;;;;;;;5007504;28;20049;-62
2022/01/23 00:58:05;;;;;;;85.97;50.33;;;;;;;;;;5007538;28;20096;-62
2022/01/23 01:00:31;;;;;;;87.53;50.33;;;;;;;;;;5007691;28;20053;-61
2022/01/23 01:03:01;;;;;;;91.17;49.13;;;;;;;;;;5009188;28;20073;-61
2022/01/23 01:05:28;;;;;;;86.20;49.87;;;;;;;;;;5007147;28;20045;-61
2022/01/23 01:13:32;;;;;;;86.93;49.07;;;;;;;;;;4993475;28;20049;-61
2022/01/23 01:16:23;;;;;;;84.10;47.87;;;;;;;;;;4987004;28;20543;-62
2022/01/23 01:32:51;;;;;;;74.50;44.63;;;;;;;;;;4990751;28;20041;-61
2022/01/23 01:35:29;;;;;;;84.65;46.13;;;;;;;;;;4992022;28;20455;-61
2022/01/23 01:37:55;;;;;;;79.67;43.80;;;;;;;;;;4991801;28;20555;-61
2022/01/23 01:40:23;;;;;;;86.17;44.97;;;;;;;;;;5003579;28;20100;-61
2022/01/23 01:42:49;;;;;;;81.60;45.07;;;;;;;;;;5037611;28;20570;-60
2022/01/23 01:45:20;;;;;;;82.03;45.73;;;;;;;;;;5007396;28;20116;-61
2022/01/23 01:47:53;;;;;;;83.77;45.30;;;;;;;;;;5032474;28;20290;-61
2022/01/23 01:50:19;;;;;;;83.43;44.90;;;;;;;;;;4986188;28;20042;-61
2022/01/23 01:52:45;;;;;;;73.70;41.40;;;;;;;;;;4992931;28;20510;-61
2022/01/23 01:55:15;;;;;;;72.07;43.00;;;;;;;;;;5005728;28;20410;-60
2022/01/23 01:57:51;;;;;;;71.53;43.30;;;;;;;;;;5015671;28;20132;-60
2022/01/23 02:08:24;;;;;;;75.28;41.17;;;;;;;;;;5006294;28;20137;-60
2022/01/23 02:10:54;;;;;;;73.37;41.40;;;;;;;;;;5006118;28;20041;-60
2022/01/23 02:13:27;;;;;;;78.43;42.07;;;;;;;;;;5006730;28;20430;-61
2022/01/23 02:24:46;;;;;;;72.88;42.13;;;;;;;;;;5005378;28;20084;-60
2022/01/23 02:54:44;;;;;;;63.63;37.13;;;;;;;;;;4995316;28;20076;-60
2022/01/23 02:57:11;;;;;;;59.50;35.83;;;;;;;;;;4993283;28;20026;-60
2022/01/23 02:59:39;;;;;;;59.97;36.10;;;;;;;;;;4991327;28;20097;-60
2022/01/23 03:04:38;;;;;;;61.10;34.73;;;;;;;;;;4991532;28;20092;-60
2022/01/23 03:09:54;;;;;;;55.22;32.80;;;;;;;;;;4993575;28;20452;-60
2022/01/23 03:15:43;;;;;;;52.80;32.10;;;;;;;;;;4999771;28;20476;-61
2022/01/23 03:31:09;;;;;;;48.17;30.23;;;;;;;;;;4997377;28;20130;-59
2022/01/23 03:33:36;;;;;;;49.93;31.77;;;;;;;;;;5003336;28;20049;-60
2022/01/23 03:36:03;;;;;;;45.73;30.03;;;;;;;;;;4989441;28;20480;-60
2022/01/23 03:38:30;;;;;;;55.33;32.83;;;;;;;;;;4996448;28;20117;-61
2022/01/23 03:40:56;;;;;;;47.67;30.00;;;;;;;;;;4994055;28;20121;-61
2022/01/23 03:43:28;;;;;;;46.80;31.33;;;;;;;;;;5012898;28;20041;-61
2022/01/23 03:46:09;;;;;;;51.57;30.77;;;;;;;;;;4993094;28;20045;-61
2022/01/23 03:51:11;;;;;;;48.77;30.53;;;;;;;;;;5005808;28;20083;-61
2022/01/23 03:53:37;;;;;;;47.57;28.83;;;;;;;;;;5015589;28;20041;-61
2022/01/23 04:02:10;;;;;;;52.63;30.83;;;;;;;;;;4983768;28;20101;-62
2022/01/23 04:04:40;;;;;;;46.17;30.70;;;;;;;;;;4986463;28;20388;-60
2022/01/23 04:07:08;;;;;;;53.33;30.67;;;;;;;;;;4988700;28;20117;-60
2022/01/23 04:09:34;;;;;;;48.10;30.27;;;;;;;;;;4990029;28;20129;-61
2022/01/23 04:12:01;;;;;;;47.07;30.53;;;;;;;;;;4990847;28;20038;-62
2022/01/23 04:14:29;;;;;;;49.03;31.20;;;;;;;;;;5002832;28;20614;-62
2022/01/23 04:20:06;;;;;;;53.35;30.75;;;;;;;;;;5004843;28;20071;-61
2022/01/23 04:33:44;;;;;;;51.58;32.22;;;;;;;;;;5001423;28;20085;-62
2022/01/23 05:01:16;;;;;;;54.03;32.83;;;;;;;;;;5003607;28;20032;-61
2022/01/23 05:04:09;;;;;;;57.50;32.93;;;;;;;;;;5007587;28;20129;-61
2022/01/23 05:06:42;;;;;;;60.20;36.00;;;;;;;;;;5035545;28;20034;-61
2022/01/23 05:09:08;;;;;;;55.27;32.90;;;;;;;;;;4999522;28;20065;-60
2022/01/23 05:11:36;;;;;;;57.30;34.07;;;;;;;;;;5025172;28;20089;-61
2022/01/23 05:14:03;;;;;;;56.60;34.87;;;;;;;;;;4996244;28;20053;-61
2022/01/23 05:16:31;;;;;;;55.13;33.57;;;;;;;;;;5001414;28;20033;-61
2022/01/23 05:18:57;;;;;;;53.20;33.50;;;;;;;;;;5007373;28;20390;-62
2022/01/23 05:23:50;;;;;;;59.07;36.77;;;;;;;;;;5007563;28;20026;-60
2022/01/23 05:26:16;;;;;;;60.07;36.90;;;;;;;;;;5006199;28;20374;-60
2022/01/23 05:28:42;;;;;;;57.73;35.00;;;;;;;;;;5008748;28;20037;-60
2022/01/23 05:31:44;;;;;;;62.60;35.07;;;;;;;;;;5006925;28;20067;-60
2022/01/23 05:34:10;;;;;;;56.33;34.73;;;;;;;;;;5024935;28;20044;-60
2022/01/23 05:36:36;;;;;;;54.87;34.80;;;;;;;;;;5005153;28;20056;-61
2022/01/23 05:39:08;;;;;;;56.17;32.83;;;;;;;;;;5005873;28;20046;-61
2022/01/23 05:41:34;;;;;;;57.60;35.83;;;;;;;;;;4994459;28;20694;-61
2022/01/23 05:44:02;;;;;;;55.57;34.60;;;;;;;;;;5004874;28;20046;-61
2022/01/23 05:46:28;;;;;;;55.73;35.50;;;;;;;;;;4993934;28;20117;-61
2022/01/23 05:48:54;;;;;;;56.07;34.03;;;;;;;;;;4990630;28;20615;-61
2022/01/23 05:51:20;;;;;;;62.00;36.90;;;;;;;;;;4990280;28;20642;-61
2022/01/23 05:53:47;;;;;;;63.07;37.23;;;;;;;;;;4994355;28;20171;-61
2022/01/23 05:56:13;;;;;;;60.80;38.33;;;;;;;;;;5006498;28;20030;-62
2022/01/23 05:58:39;;;;;;;60.20;37.07;;;;;;;;;;5006363;28;20098;-62
2022/01/23 06:01:06;;;;;;;57.80;36.30;;;;;;;;;;5006687;28;20491;-61
2022/01/23 06:03:32;;;;;;;60.30;37.13;;;;;;;;;;5022762;28;20044;-61
2022/01/23 06:05:58;;;;;;;63.67;38.70;;;;;;;;;;5005795;28;20080;-61
2022/01/23 06:08:25;;;;;;;62.97;37.47;;;;;;;;;;5008186;28;20383;-61
2022/01/23 06:10:57;;;;;;;60.63;37.53;;;;;;;;;;5009941;28;20041;-61
2022/01/23 06:13:27;;;;;;;58.80;37.93;;;;;;;;;;5005709;28;20554;-62
2022/01/23 06:15:56;;;;;;;55.17;36.47;;;;;;;;;;5005081;28;20088;-61
2022/01/23 06:18:22;;;;;;;60.73;39.10;;;;;;;;;;5008017;28;20070;-61
2022/01/23 06:20:48;;;;;;;60.43;37.90;;;;;;;;;;5007000;28;20038;-61
2022/01/23 06:23:14;;;;;;;64.70;39.30;;;;;;;;;;5003587;28;20034;-61
2022/01/23 06:25:46;;;;;;;57.40;37.20;;;;;;;;;;4996008;28;20030;-61
2022/01/23 06:28:15;;;;;;;65.10;39.47;;;;;;;;;;4989156;28;20046;-61
2022/01/23 06:30:41;;;;;;;63.47;37.70;;;;;;;;;;5003013;28;20499;-60
2022/01/23 06:33:07;;;;;;;61.17;37.73;;;;;;;;;;5006071;28;20029;-61
2022/01/23 06:35:35;;;;;;;63.13;39.27;;;;;;;;;;5007818;28;20072;-60
2022/01/23 06:38:01;;;;;;;62.53;40.30;;;;;;;;;;5008431;28;20045;-61
2022/01/23 06:40:27;;;;;;;63.97;39.07;;;;;;;;;;5008608;28;20041;-61
2022/01/23 06:42:53;;;;;;;65.20;40.00;;;;;;;;;;5006367;28;20496;-61
2022/01/23 06:45:19;;;;;;;69.97;40.93;;;;;;;;;;5008405;28;20384;-60
2022/01/23 06:47:45;;;;;;;61.70;39.87;;;;;;;;;;5005884;28;20052;-61
2022/01/23 06:50:11;;;;;;;60.63;37.57;;;;;;;;;;5007381;28;20530;-60
2022/01/23 06:52:37;;;;;;;61.20;37.47;;;;;;;;;;5005063;28;20443;-61
2022/01/23 06:55:03;;;;;;;61.43;39.13;;;;;;;;;;5006473;28;20111;-61
2022/01/23 06:57:29;;;;;;;68.50;40.57;;;;;;;;;;5007383;28;20034;-61
2022/01/23 06:59:56;;;;;;;58.27;38.10;;;;;;;;;;5007200;28;20084;-61
2022/01/23 07:02:22;;;;;;;62.87;39.97;;;;;;;;;;4988445;28;20110;-61
2022/01/23 07:04:48;;;;;;;62.50;37.97;;;;;;;;;;4989483;28;20054;-61
2022/01/23 07:07:14;;;;;;;57.70;36.83;;;;;;;;;;4992577;28;20124;-61
2022/01/23 07:09:40;;;;;;;60.87;38.83;;;;;;;;;;5008607;28;20553;-61
2022/01/23 07:12:06;;;;;;;61.13;40.00;;;;;;;;;;5008445;28;20029;-62
2022/01/23 07:14:32;;;;;;;63.63;38.90;;;;;;;;;;5006164;28;20025;-61
2022/01/23 07:16:58;;;;;;;63.30;40.13;;;;;;;;;;5006896;28;20034;-61
2022/01/23 07:19:24;;;;;;;62.47;39.10;;;;;;;;;;5007292;28;20392;-61
2022/01/23 07:21:50;;;;;;;62.43;37.37;;;;;;;;;;5005654;28;20030;-61
2022/01/23 07:24:16;;;;;;;63.83;38.53;;;;;;;;;;5008710;28;20377;-61
2022/01/23 07:26:42;;;;;;;59.77;36.17;;;;;;;;;;5009962;28;20555;-61
2022/01/23 07:29:09;;;;;;;60.27;39.57;;;;;;;;;;5010931;28;20403;-61
2022/01/23 07:34:08;;;;;;;62.63;39.50;;;;;;;;;;4999136;28;20027;-61
2022/01/23 07:36:34;;;;;;;62.07;38.37;;;;;;;;;;5007694;28;20030;-60
2022/01/23 07:39:00;;;;;;;66.03;40.10;;;;;;;;;;5010274;28;20046;-61
2022/01/23 07:41:26;;;;;;;61.20;39.00;;;;;;;;;;5008428;28;20046;-61
2022/01/23 07:43:52;;;;;;;66.33;40.97;;;;;;;;;;5009530;28;20041;-61
2022/01/23 07:46:56;;;;;;;67.53;39.87;;;;;;;;;;5007690;28;20030;-61
2022/01/23 07:49:22;;;;;;;62.53;40.43;;;;;;;;;;4988508;28;20043;-61
2022/01/23 07:51:48;;;;;;;68.20;40.13;;;;;;;;;;4990263;28;20488;-61
2022/01/23 07:54:16;;;;;;;64.50;40.17;;;;;;;;;;4991750;28;20118;-61
2022/01/23 07:56:42;;;;;;;68.23;41.50;;;;;;;;;;4994999;28;20033;-61
2022/01/23 07:59:11;;;;;;;66.00;39.60;;;;;;;;;;5024144;28;20030;-61
2022/01/23 08:01:40;;;;;;;65.40;39.60;;;;;;;;;;4993281;28;20040;-60
2022/01/23 08:04:06;;;;;;;66.70;39.80;;;;;;;;;;5010135;28;20571;-60
2022/01/23 08:06:39;;;;;;;68.10;40.20;;;;;;;;;;5011035;28;20116;-61
2022/01/23 08:09:05;;;;;;;62.50;40.07;;;;;;;;;;5005521;28;20105;-60
2022/01/23 08:11:31;;;;;;;72.20;42.27;;;;;;;;;;5010434;28;20045;-61
2022/01/23 08:14:03;;;;;;;71.00;42.83;;;;;;;;;;5008133;28;20459;-61
2022/01/23 08:19:32;;;;;;;70.80;43.53;;;;;;;;;;5008108;28;20064;-61
2022/01/23 08:21:58;;;;;;;72.07;44.40;;;;;;;;;;5005989;28;20034;-61
2022/01/23 08:24:24;;;;;;;71.93;45.67;;;;;;;;;;4999425;28;20038;-61
2022/01/23 08:26:50;;;;;;;79.30;47.43;;;;;;;;;;5002831;28;20077;-61
2022/01/23 08:29:16;;;;;;;71.97;45.07;;;;;;;;;;4988115;28;20046;-61
2022/01/23 08:31:45;;;;;;;71.83;45.37;;;;;;;;;;4995442;28;20099;-60
2022/01/23 08:34:11;;;;;;;76.97;44.93;;;;;;;;;;4988554;28;20420;-61
2022/01/23 08:36:37;;;;;;;80.20;49.00;;;;;;;;;;4988834;28;20054;-61
2022/01/23 08:39:03;;;;;;;79.07;48.53;;;;;;;;;;4982963;28;20049;-59
2022/01/23 08:44:14;;;;;;;78.45;47.60;;;;;;;;;;4991173;28;20554;-61
2022/01/23 08:46:41;;;;;;;85.00;58.10;;;;;;;;;;4996763;28;20087;-61
2022/01/23 08:49:07;;;;;;;73.73;48.57;;;;;;;;;;4994334;28;20403;-61
2022/01/23 08:51:33;;;;;;;78.20;48.80;;;;;;;;;;4985963;28;20050;-61
2022/01/23 08:53:59;;;;;;;73.83;47.13;;;;;;;;;;4999588;28;20066;-61
2022/01/23 08:56:26;;;;;;;80.43;49.90;;;;;;;;;;4992091;28;20070;-61
2022/01/23 08:59:10;;;;;;;78.53;48.93;;;;;;;;;;4991947;28;20515;-61
2022/01/23 09:01:36;;;;;;;78.03;49.55;;;;;;;;;;5001785;28;20033;-60
2022/01/23 09:04:03;;;;;;;83.60;50.73;;;;;;;;;;5009475;28;20088;-61
2022/01/23 09:06:29;;;;;;;78.93;49.97;;;;;;;;;;5008282;28;20538;-61
2022/01/23 09:08:57;;;;;;;79.20;50.17;;;;;;;;;;5009183;28;20034;-61
2022/01/23 09:11:38;;;;;;;83.37;49.97;;;;;;;;;;5008608;28;20042;-61
2022/01/23 09:14:07;;;;;;;81.20;50.27;;;;;;;;;;5007645;28;20040;-61
2022/01/23 09:16:42;;;;;;;76.90;50.27;;;;;;;;;;4999946;28;20085;-62
2022/01/23 09:19:09;;;;;;;78.33;50.23;;;;;;;;;;4992678;28;20419;-61
2022/01/23 09:21:36;;;;;;;79.70;49.90;;;;;;;;;;5009260;28;20057;-61
2022/01/23 09:24:02;;;;;;;84.10;51.50;;;;;;;;;;5021161;28;20435;-60
2022/01/23 09:26:29;;;;;;;87.33;50.60;;;;;;;;;;5005048;28;20535;-60
2022/01/23 09:28:57;;;;;;;90.13;53.73;;;;;;;;;;5007631;28;20499;-61
2022/01/23 09:31:46;;;;;;;89.73;53.77;;;;;;;;;;5037638;28;20073;-62
2022/01/23 09:34:12;;;;;;;93.30;53.80;;;;;;;;;;5038841;28;20034;-61
2022/01/23 09:36:38;;;;;;;90.70;54.80;;;;;;;;;;5008337;28;20041;-62
2022/01/23 09:39:05;;;;;;;93.37;54.23;;;;;;;;;;5007846;28;20038;-61
2022/01/23 09:41:31;;;;;;;99.13;56.87;;;;;;;;;;5008703;28;20046;-61
2022/01/23 09:44:00;;;;;;;97.57;55.30;;;;;;;;;;5007418;28;20042;-60
2022/01/23 09:46:26;;;;;;;105.27;58.07;;;;;;;;;;5005827;28;20038;-61
2022/01/23 09:48:52;;;;;;;93.33;55.57;;;;;;;;;;4992477;28;20042;-60
2022/01/23 09:51:20;;;;;;;96.50;55.93;;;;;;;;;;4995842;28;20037;-60
2022/01/23 09:53:47;;;;;;;97.00;55.43;;;;;;;;;;4989554;28;20056;-61
2022/01/23 09:56:15;;;;;;;92.60;54.37;;;;;;;;;;5025241;28;20089;-61
2022/01/23 09:58:41;;;;;;;97.97;57.30;;;;;;;;;;4987544;28;20068;-61
2022/01/23 10:01:07;;;;;;;100.53;56.70;;;;;;;;;;4991654;28;20483;-61
2022/01/23 10:03:33;;;;;;;97.47;55.87;;;;;;;;;;4988479;28;20042;-61
2022/01/23 10:05:59;;;;;;;101.87;57.13;;;;;;;;;;5005937;28;20431;-61
2022/01/23 10:08:29;;;;;;;102.40;54.97;;;;;;;;;;4990085;28;20057;-61
2022/01/23 10:10:56;;;;;;;95.80;54.63;;;;;;;;;;5004045;28;20038;-60
2022/01/23 10:13:23;;;;;;;97.73;54.37;;;;;;;;;;5006071;28;20060;-61
2022/01/23 10:15:50;;;;;;;105.03;54.37;;;;;;;;;;5004840;28;20034;-61
2022/01/23 10:18:16;;;;;;;106.80;59.77;;;;;;;;;;4993954;28;20514;-61
2022/01/23 10:20:42;;;;;;;106.80;56.63;;;;;;;;;;5006505;28;20041;-61
2022/01/23 10:23:09;;;;;;;107.37;56.70;;;;;;;;;;5008256;28;20510;-61
2022/01/23 10:25:40;;;;;;;107.97;55.63;;;;;;;;;;5038431;28;20040;-61
2022/01/23 10:28:16;;;;;;;112.67;56.43;;;;;;;;;;5038222;28;20042;-62
2022/01/23 10:30:46;;;;;;;109.27;57.43;;;;;;;;;;5006796;28;20038;-61
2022/01/23 10:33:15;;;;;;;103.53;56.13;;;;;;;;;;5002124;28;20041;-62
2022/01/23 10:36:00;;;;;;;110.03;57.90;;;;;;;;;;5002910;28;20068;-62
2022/01/23 10:38:32;;;;;;;98.72;55.92;;;;;;;;;;5013938;28;20057;-62
2022/01/23 10:41:15;;;;;;;103.87;55.17;;;;;;;;;;5008377;28;20120;-61
2022/01/23 10:46:49;;;;;;;108.50;57.37;;;;;;;;;;4983044;28;20060;-61
2022/01/23 10:49:15;;;;;;;112.07;58.03;;;;;;;;;;4990386;28;20078;-61
2022/01/23 10:51:41;;;;;;;103.53;56.13;;;;;;;;;;4986005;28;20034;-61
2022/01/23 10:54:09;;;;;;;109.77;58.47;;;;;;;;;;4988268;28;20049;-60
2022/01/23 10:56:43;;;;;;;109.20;57.17;;;;;;;;;;4991793;28;20038;-60
2022/01/23 10:59:09;;;;;;;;;;;;;;;;;;5003244;28;20121;-61
2022/01/23 11:01:36;;;;;;;102.30;54.57;;;;;;;;;;5003386;28;19997;-60
2022/01/23 11:04:12;;;;;;;110.37;56.90;;;;;;;;;;4997850;28;20037;-61
2022/01/23 11:06:52;;;;;;;110.53;56.13;;;;;;;;;;4988810;28;20125;-61
2022/01/23 11:09:18;;;;;;;101.23;55.87;;;;;;;;;;4990671;28;20043;-61
2022/01/23 11:11:48;;;;;;;105.50;56.37;;;;;;;;;;5000220;28;20109;-61
2022/01/23 11:19:46;;;;;;;104.32;55.05;;;;;;;;;;4995701;28;20588;-61
2022/01/23 11:22:16;;;;;;;104.20;57.47;;;;;;;;;;5031715;28;20415;-61
2022/01/23 11:24:45;;;;;;;105.00;57.33;;;;;;;;;;4995268;28;20038;-61
2022/01/23 11:27:15;;;;;;;105.37;56.67;;;;;;;;;;5008729;28;20038;-61
2022/01/23 11:30:03;;;;;;;101.27;58.90;;;;;;;;;;5006382;28;20046;-61
2022/01/23 11:32:35;;;;;;;103.63;58.03;;;;;;;;;;5008227;28;20042;-61
2022/01/23 11:35:06;;;;;;;103.67;55.80;;;;;;;;;;4993499;28;20034;-61
2022/01/23 11:37:33;;;;;;;105.73;58.03;;;;;;;;;;5023811;28;20486;-62
2022/01/23 11:40:06;;;;;;;104.50;56.83;;;;;;;;;;5000170;28;20040;-61
2022/01/23 11:53:45;;;;;;;99.22;55.42;;;;;;;;;;5006531;28;20462;-60
2022/01/23 11:54:00;;;;;;;98.03;56.23;;;;;;;;;;4996612;28;20050;-60
2022/01/23 11:56:27;;;;;;;102.37;57.97;;;;;;;;;;4989524;28;20050;-60
2022/01/23 11:58:55;;;;;;;106.07;58.20;;;;;;;;;;5008502;28;20069;-61
2022/01/23 12:07:52;;;;;;;102.03;54.73;;;;;;;;;;4977754;28;20051;-60
2022/01/23 12:10:27;;;;;;;94.80;55.63;;;;;;;;;;4996454;28;20050;-61
2022/01/23 12:13:21;;;;;;;96.28;52.95;;;;;;;;;;5002863;28;20034;-60
2022/01/23 12:18:38;;;;;;;102.83;56.07;;;;;;;;;;5017554;28;20457;-61
2022/01/23 12:21:04;;;;;;;105.90;58.23;;;;;;;;;;5004283;28;20030;-61
2022/01/23 12:23:50;;;;;;;100.50;55.90;;;;;;;;;;4995305;28;20076;-61
2022/01/23 12:26:38;;;;;;;103.87;54.80;;;;;;;;;;5008405;28;20480;-61
2022/01/23 12:29:11;;;;;;;102.57;56.07;;;;;;;;;;5007460;28;20468;-60
2022/01/23 12:31:37;;;;;;;107.40;54.70;;;;;;;;;;5017307;28;20499;-61
2022/01/23 12:34:04;;;;;;;101.53;52.73;;;;;;;;;;4999300;28;20030;-61
2022/01/23 12:36:34;;;;;;;95.90;53.00;;;;;;;;;;4999450;28;20084;-62
2022/01/23 12:39:09;;;;;;;97.83;53.73;;;;;;;;;;5006981;28;20038;-61
2022/01/23 12:41:36;;;;;;;98.13;53.37;;;;;;;;;;5007805;28;20130;-61
2022/01/23 12:44:06;;;;;;;102.83;55.90;;;;;;;;;;5012896;28;20042;-61
2022/01/23 12:46:34;;;;;;;104.57;57.13;;;;;;;;;;5008943;28;20042;-61
2022/01/23 12:49:17;;;;;;;98.90;54.53;;;;;;;;;;5007395;28;20061;-61
2022/01/23 12:51:43;;;;;;;99.87;55.33;;;;;;;;;;5007193;28;20038;-61
2022/01/23 12:54:20;;;;;;;94.33;54.57;;;;;;;;;;5008036;28;20037;-61
2022/01/23 12:59:58;;;;;;;95.17;54.93;;;;;;;;;;4992659;28;20133;-61
2022/01/23 13:02:29;;;;;;;92.43;53.30;;;;;;;;;;4997931;28;20161;-61
2022/01/23 13:04:56;;;;;;;95.63;54.27;;;;;;;;;;4996665;28;20042;-61
2022/01/23 13:07:28;;;;;;;106.50;56.97;;;;;;;;;;5007916;28;20117;-61
2022/01/23 13:10:05;;;;;;;96.10;54.57;;;;;;;;;;5003952;28;20168;-61
2022/01/23 13:30:56;;;;;;;90.23;50.60;;;;;;;;;;5007421;28;20513;-61
2022/01/23 13:33:25;;;;;;;96.33;53.13;;;;;;;;;;5008794;28;20072;-61
2022/01/23 13:35:52;;;;;;;90.70;49.80;;;;;;;;;;5008532;28;20042;-61
2022/01/23 13:38:20;;;;;;;84.40;49.27;;;;;;;;;;5034428;28;20045;-61
2022/01/23 13:40:56;;;;;;;84.83;47.47;;;;;;;;;;5008269;28;20088;-61
2022/01/23 13:51:58;;;;;;;94.00;50.07;;;;;;;;;;4988108;28;20038;-61
2022/01/23 14:02:24;;;;;;;92.43;51.07;;;;;;;;;;5006250;28;20132;-61
2022/01/23 14:05:24;;;;;;;88.45;49.28;;;;;;;;;;5034417;28;20044;-61
2022/01/23 14:07:52;;;;;;;91.10;50.07;;;;;;;;;;5004711;28;20042;-60
2022/01/23 14:10:19;;;;;;;94.33;54.33;;;;;;;;;;5006161;28;20081;-61
2022/01/23 14:12:46;;;;;;;93.83;54.80;;;;;;;;;;5007189;28;20657;-61
2022/01/23 14:15:16;;;;;;;95.77;54.47;;;;;;;;;;5006217;28;20483;-62
2022/01/23 14:20:54;;;;;;;95.23;52.20;;;;;;;;;;4992707;28;20076;-61
2022/01/23 14:23:20;;;;;;;93.60;54.90;;;;;;;;;;5006611;28;20038;-60
2022/01/23 14:25:48;;;;;;;90.93;53.27;;;;;;;;;;5003373;28;20460;-61
2022/01/23 14:28:15;;;;;;;93.20;52.47;;;;;;;;;;5005453;28;20034;-62
2022/01/23 14:30:46;;;;;;;88.97;53.07;;;;;;;;;;4993843;28;20484;-61
2022/01/23 14:33:13;;;;;;;92.47;53.77;;;;;;;;;;5004459;28;20060;-61
2022/01/23 14:35:39;;;;;;;92.40;53.13;;;;;;;;;;5011079;28;20061;-61
2022/01/23 14:38:19;;;;;;;93.07;55.43;;;;;;;;;;5010552;28;20396;-61
2022/01/23 14:40:51;;;;;;;95.23;56.30;;;;;;;;;;5011404;28;20479;-61
2022/01/23 14:43:18;;;;;;;86.33;52.43;;;;;;;;;;5005104;28;20069;-62
2022/01/23 14:45:48;;;;;;;93.77;55.27;;;;;;;;;;5002580;28;20040;-61
2022/01/23 14:48:15;;;;;;;94.97;55.80;;;;;;;;;;4990747;28;20037;-61
2022/01/23 14:50:45;;;;;;;90.00;52.80;;;;;;;;;;5000799;28;20070;-61
2022/01/23 14:53:19;;;;;;;89.10;56.13;;;;;;;;;;5008962;28;20041;-61
2022/01/23 14:55:50;;;;;;;93.53;55.63;;;;;;;;;;5009475;28;20113;-61
2022/01/23 14:58:21;;;;;;;90.73;56.30;;;;;;;;;;5027748;28;20522;-60
2022/01/23 15:00:48;;;;;;;93.10;57.00;;;;;;;;;;5003903;28;20411;-60
2022/01/23 15:03:14;;;;;;;97.50;56.80;;;;;;;;;;5010652;28;20487;-60
2022/01/23 15:05:41;;;;;;;96.67;55.77;;;;;;;;;;5010210;28;20071;-60
2022/01/23 15:08:08;;;;;;;89.87;54.47;;;;;;;;;;5012224;28;20072;-60
2022/01/23 15:10:36;;;;;;;89.40;55.33;;;;;;;;;;5016842;28;20130;-60
2022/01/23 15:13:02;;;;;;;94.00;56.10;;;;;;;;;;5007530;28;20037;-61
2022/01/23 15:15:28;;;;;;;93.80;55.50;;;;;;;;;;5010256;28;20037;-61
2022/01/23 15:17:54;;;;;;;96.33;55.67;;;;;;;;;;5008159;28;20173;-62
2022/01/23 15:20:20;;;;;;;94.83;54.80;;;;;;;;;;4998012;28;20066;-61
2022/01/23 15:31:56;;;;;;;93.00;54.70;;;;;;;;;;4992602;28;20052;-62
2022/01/23 15:34:36;;;;;;;97.37;56.27;;;;;;;;;;5034887;28;20045;-61
2022/01/23 15:37:02;;;;;;;92.67;55.03;;;;;;;;;;5011865;28;20034;-61
2022/01/23 15:39:29;;;;;;;100.03;55.57;;;;;;;;;;5008995;28;20042;-61
2022/01/23 15:44:59;;;;;;;94.13;54.27;;;;;;;;;;4993461;28;20133;-61
2022/01/23 15:47:52;;;;;;;90.43;52.40;;;;;;;;;;5004417;28;20453;-60
2022/01/23 15:50:19;;;;;;;88.83;53.07;;;;;;;;;;4989573;28;20128;-60
2022/01/23 15:52:46;;;;;;;89.27;52.57;;;;;;;;;;4994835;28;20034;-61
2022/01/23 16:01:19;;;;;;;94.03;52.40;;;;;;;;;;4989170;28;20396;-61
2022/01/23 16:03:45;;;;;;;101.00;54.23;;;;;;;;;;5008563;28;20034;-61
2022/01/23 16:06:11;;;;;;;93.70;52.00;;;;;;;;;;5009858;28;20042;-61
2022/01/23 16:08:38;;;;;;;97.57;52.47;;;;;;;;;;5009108;28;20057;-61
2022/01/23 16:11:05;;;;;;;95.00;51.63;;;;;;;;;;5009965;28;20034;-60
2022/01/23 16:13:31;;;;;;;96.87;53.37;;;;;;;;;;4994042;28;20182;-62
2022/01/23 16:16:00;;;;;;;96.57;52.17;;;;;;;;;;4996803;28;20034;-62
2022/01/23 16:18:30;;;;;;;99.03;51.73;;;;;;;;;;4986509;28;20054;-62
2022/01/23 16:20:56;;;;;;;90.93;51.70;;;;;;;;;;4985770;28;20042;-62
2022/01/23 16:23:23;;;;;;;93.10;51.60;;;;;;;;;;4990819;28;20069;-62
2022/01/23 16:25:52;;;;;;;99.27;51.57;;;;;;;;;;4993158;28;20455;-62
2022/01/23 16:28:18;;;;;;;97.53;51.73;;;;;;;;;;4996262;28;20052;-62
2022/01/23 16:30:55;;;;;;;95.80;53.30;;;;;;;;;;4996217;28;20041;-62
2022/01/23 16:33:23;;;;;;;92.67;52.50;;;;;;;;;;5009072;28;20084;-62
2022/01/23 16:35:50;;;;;;;95.17;52.70;;;;;;;;;;5031840;28;20038;-62
2022/01/23 16:38:16;;;;;;;98.07;53.50;;;;;;;;;;5019160;28;20129;-63
2022/01/23 16:40:43;;;;;;;96.50;52.80;;;;;;;;;;5006923;28;20030;-62
2022/01/23 16:43:09;;;;;;;98.63;54.33;;;;;;;;;;4991535;28;20047;-62
2022/01/23 16:45:35;;;;;;;98.80;51.03;;;;;;;;;;4983611;28;20042;-61
2022/01/23 16:48:02;;;;;;;87.23;52.17;;;;;;;;;;4987830;28;20038;-62
2022/01/23 16:50:29;;;;;;;97.73;54.73;;;;;;;;;;4994001;28;20132;-63
2022/01/23 16:52:55;;;;;;;97.00;54.50;;;;;;;;;;4993949;28;20038;-61
2022/01/23 16:55:22;;;;;;;102.33;57.33;;;;;;;;;;4990522;28;20037;-61
2022/01/23 16:57:48;;;;;;;99.53;53.43;;;;;;;;;;5003798;28;20034;-61
2022/01/23 17:00:14;;;;;;;102.87;54.90;;;;;;;;;;4989161;28;20072;-62
2022/01/23 17:02:40;;;;;;;96.97;54.77;;;;;;;;;;4987577;28;20096;-61
2022/01/23 17:05:07;;;;;;;100.40;55.20;;;;;;;;;;4981351;28;20061;-61
2022/01/23 17:07:33;;;;;;;104.53;55.07;;;;;;;;;;4991083;28;20062;-62
2022/01/23 17:09:59;;;;;;;101.53;54.97;;;;;;;;;;4989040;28;20480;-62
2022/01/23 17:12:25;;;;;;;96.83;53.40;;;;;;;;;;5000492;28;20483;-61
2022/01/23 17:14:51;;;;;;;99.20;52.73;;;;;;;;;;4986529;28;20399;-62
2022/01/23 17:17:17;;;;;;;99.07;55.50;;;;;;;;;;4988536;28;20452;-61
2022/01/23 17:19:43;;;;;;;101.50;55.63;;;;;;;;;;4984859;28;20555;-61
2022/01/23 17:22:37;;;;;;;100.67;57.33;;;;;;;;;;4993672;28;20121;-62
2022/01/23 17:25:03;;;;;;;97.93;53.20;;;;;;;;;;5023963;28;20058;-61
2022/01/23 17:27:29;;;;;;;97.97;55.93;;;;;;;;;;4990634;28;20034;-61
2022/01/23 17:29:55;;;;;;;102.27;56.13;;;;;;;;;;4987372;28;20105;-61
2022/01/23 17:32:22;;;;;;;99.10;56.40;;;;;;;;;;4985788;28;20129;-61
2022/01/23 17:34:48;;;;;;;99.73;57.80;;;;;;;;;;4982625;28;20039;-61
2022/01/23 17:37:15;;;;;;;101.97;54.30;;;;;;;;;;4986989;28;20491;-60
2022/01/23 17:39:41;;;;;;;94.33;55.43;;;;;;;;;;4984983;28;20121;-61
2022/01/23 17:42:09;;;;;;;99.17;55.13;;;;;;;;;;4988758;28;20140;-61
2022/01/23 17:44:37;;;;;;;105.13;54.33;;;;;;;;;;4992815;28;20037;-62
2022/01/23 17:47:18;;;;;;;98.47;54.73;;;;;;;;;;4993395;28;20042;-61
2022/01/23 17:49:53;;;;;;;100.03;56.57;;;;;;;;;;4987500;28;20088;-60
2022/01/23 17:52:19;;;;;;;101.28;56.72;;;;;;;;;;4990708;28;20442;-61
2022/01/23 17:54:45;;;;;;;98.80;54.33;;;;;;;;;;4982948;28;20042;-61
2022/01/23 17:57:11;;;;;;;98.20;55.60;;;;;;;;;;5018545;28;20506;-61
2022/01/23 17:59:37;;;;;;;100.87;52.87;;;;;;;;;;4996740;28;20101;-61
2022/01/23 18:02:03;;;;;;;96.30;55.83;;;;;;;;;;5002448;28;20056;-62
2022/01/23 18:04:30;;;;;;;99.50;58.47;;;;;;;;;;5000771;28;21857;-61
2022/01/23 18:07:03;;;;;;;99.67;54.03;;;;;;;;;;5027613;28;20049;-62
2022/01/23 18:09:29;;;;;;;101.20;54.17;;;;;;;;;;5032750;28;20165;-61
2022/01/23 18:11:56;;;;;;;103.87;56.73;;;;;;;;;;5007216;28;20124;-61
2022/01/23 18:14:23;;;;;;;101.87;57.97;;;;;;;;;;5003320;28;20446;-61
2022/01/23 18:16:49;;;;;;;98.50;55.67;;;;;;;;;;5004702;28;20030;-62
2022/01/23 18:19:15;;;;;;;102.63;56.90;;;;;;;;;;5002144;28;20484;-62
2022/01/23 18:21:41;;;;;;;104.67;59.00;;;;;;;;;;5002877;28;20117;-62
2022/01/23 18:24:08;;;;;;;98.23;55.10;;;;;;;;;;5000164;28;20113;-62
2022/01/23 18:26:40;;;;;;;104.73;57.83;;;;;;;;;;4988935;28;20088;-61
2022/01/23 18:29:07;;;;;;;98.07;55.73;;;;;;;;;;5016716;28;20082;-61